Terminal Aerodrome Forecast
Issued by NWS

Home | Current Version | Previous Version | Text Only | Print | Product List | Glossary On
Versions: 1 2 3 4 5 6 7 8 9 10 11 12 13 14 15
000
FTUS46 KMTR 201727
TAFOAK
TAF
KOAK 201727Z 2018/2124 27009KT P6SM FEW007 SCT015
     FM201900 28010KT P6SM FEW010
     FM202100 30013KT P6SM FEW012 SCT250
     FM210600 30008KT P6SM BKN015
     FM210800 30005KT P6SM OVC012
     FM211800 28007KT P6SM SCT015=

USA.gov is the U.S. government's official web portal to all federal, state and local government web resources and services.